createdAt,value
2022-09-15T00:01:00.946Z,19.70
2022-09-15T00:03:28.969Z,19.69
2022-09-15T00:05:56.232Z,19.70
2022-09-15T00:08:24.348Z,19.73
2022-09-15T00:10:54.255Z,19.76
2022-09-15T00:13:22.116Z,19.78
2022-09-15T00:15:48.773Z,19.81
2022-09-15T00:18:15.985Z,19.83
2022-09-15T00:20:45.557Z,19.82
2022-09-15T00:23:14.228Z,19.82
2022-09-15T00:25:45.757Z,19.80
2022-09-15T00:28:13.513Z,19.73
2022-09-15T00:30:42.155Z,19.66
2022-09-15T00:33:08.957Z,19.60
2022-09-15T00:35:39.525Z,19.59
2022-09-15T00:38:09.130Z,19.55
2022-09-15T00:40:43.870Z,19.50
2022-09-15T00:43:12.071Z,19.48
2022-09-15T00:45:39.061Z,19.47
2022-09-15T00:48:08.170Z,19.48
2022-09-15T00:50:36.066Z,19.50
2022-09-15T00:53:05.898Z,19.51
2022-09-15T00:55:37.469Z,19.53
2022-09-15T00:58:06.858Z,19.58
2022-09-15T01:00:34.465Z,19.61
2022-09-15T01:03:02.145Z,19.63
2022-09-15T01:05:33.001Z,19.62
2022-09-15T01:08:03.125Z,19.61
2022-09-15T01:10:35.775Z,19.60
2022-09-15T01:13:05.521Z,19.57
2022-09-15T01:15:40.006Z,19.49
2022-09-15T01:18:15.513Z,19.41
2022-09-15T01:21:02.585Z,19.37
2022-09-15T01:24:00.301Z,19.39
2022-09-15T01:27:00.319Z,19.42
2022-09-15T01:29:55.462Z,19.41
2022-09-15T01:32:47.800Z,19.43
2022-09-15T01:35:27.667Z,19.45
2022-09-15T01:37:58.883Z,19.49
2022-09-15T01:40:32.288Z,19.53
2022-09-15T01:43:01.429Z,19.55
2022-09-15T01:45:32.837Z,19.59
2022-09-15T01:48:03.704Z,19.59
2022-09-15T01:50:34.226Z,19.63
2022-09-15T01:53:04.177Z,19.63
2022-09-15T01:55:37.995Z,19.67
2022-09-15T01:58:05.142Z,19.70
2022-09-15T02:00:36.993Z,19.76
2022-09-15T02:03:11.778Z,19.77
2022-09-15T02:05:42.175Z,19.77
2022-09-15T02:08:25.103Z,19.80
2022-09-15T02:11:01.930Z,19.77
2022-09-15T02:13:38.105Z,19.77
2022-09-15T02:16:15.898Z,19.77
2022-09-15T02:18:48.659Z,19.73
2022-09-15T02:21:22.594Z,19.71
2022-09-15T02:23:54.922Z,19.70
2022-09-15T02:26:24.784Z,19.69
2022-09-15T02:28:54.239Z,19.71
2022-09-15T02:31:25.433Z,19.74
2022-09-15T02:33:57.975Z,19.77
2022-09-15T02:36:28.921Z,19.78
2022-09-15T02:39:02.212Z,19.78
2022-09-15T02:41:28.997Z,19.77
2022-09-15T02:43:55.754Z,19.78
2022-09-15T02:46:24.527Z,19.80
2022-09-15T02:48:51.175Z,19.78
2022-09-15T02:51:18.503Z,19.76
2022-09-15T02:53:46.355Z,19.77
2022-09-15T02:56:13.692Z,19.78
2022-09-15T02:58:40.657Z,19.78
2022-09-15T03:01:08.658Z,19.78
2022-09-15T03:03:39.920Z,19.81
2022-09-15T03:06:19.798Z,19.84
2022-09-15T03:08:48.861Z,19.85
2022-09-15T03:11:16.106Z,19.85
2022-09-15T03:13:43.061Z,19.83
2022-09-15T03:16:11.899Z,19.81
2022-09-15T03:18:40.217Z,19.76
2022-09-15T03:21:08.062Z,19.70
2022-09-15T03:23:36.013Z,19.72
2022-09-15T03:26:03.474Z,19.74
2022-09-15T03:28:30.231Z,19.75
2022-09-15T03:30:57.010Z,19.77
2022-09-15T03:33:24.411Z,19.76
2022-09-15T03:35:52.857Z,19.76
2022-09-15T03:38:19.940Z,19.76
2022-09-15T03:40:57.582Z,19.80
2022-09-15T03:43:24.725Z,19.80
2022-09-15T03:45:51.398Z,19.83
2022-09-15T03:48:18.130Z,19.83
2022-09-15T03:50:44.745Z,19.82
2022-09-15T03:53:12.885Z,19.83
2022-09-15T03:55:39.551Z,19.82
2022-09-15T03:58:06.318Z,19.82
2022-09-15T04:00:32.951Z,19.81
2022-09-15T04:02:59.947Z,19.81
2022-09-15T04:05:26.535Z,19.79
2022-09-15T04:07:53.081Z,19.78
2022-09-15T04:10:24.338Z,19.77
2022-09-15T04:12:51.430Z,19.71
2022-09-15T04:15:18.943Z,19.63
2022-09-15T04:17:45.698Z,19.60
2022-09-15T04:20:12.871Z,19.57
2022-09-15T04:22:39.461Z,19.57
2022-09-15T04:25:07.214Z,19.58
2022-09-15T04:27:36.314Z,19.55
2022-09-15T04:30:03.623Z,19.52
2022-09-15T04:32:30.251Z,19.53
2022-09-15T04:34:56.961Z,19.45
2022-09-15T04:37:23.577Z,19.42
2022-09-15T04:39:50.792Z,19.38
2022-09-15T04:42:17.495Z,19.35
2022-09-15T04:44:45.504Z,19.30
2022-09-15T04:47:12.179Z,19.24
2022-09-15T04:49:39.125Z,19.19
2022-09-15T04:52:09.594Z,19.16
2022-09-15T04:54:36.806Z,19.12
2022-09-15T04:57:03.796Z,19.14
2022-09-15T04:59:30.411Z,19.15
2022-09-15T05:01:58.739Z,19.15
2022-09-15T05:04:25.713Z,19.16
2022-09-15T05:06:52.682Z,19.19
2022-09-15T05:09:19.292Z,19.20
2022-09-15T05:11:45.947Z,19.22
2022-09-15T05:14:12.755Z,19.24
2022-09-15T05:16:40.214Z,19.24
2022-09-15T05:19:10.316Z,19.23
2022-09-15T05:21:37.057Z,19.25
2022-09-15T05:24:03.807Z,19.29
2022-09-15T05:26:30.713Z,19.33
2022-09-15T05:28:57.851Z,19.32
2022-09-15T05:31:27.248Z,19.28
2022-09-15T05:33:54.319Z,19.26
2022-09-15T05:36:25.031Z,19.27
2022-09-15T05:38:52.336Z,19.28
2022-09-15T05:41:19.684Z,19.29
2022-09-15T05:43:47.909Z,19.30
2022-09-15T05:46:16.031Z,19.32
2022-09-15T05:48:42.795Z,19.32
2022-09-15T05:51:09.784Z,19.34
2022-09-15T05:53:38.352Z,19.38
2022-09-15T05:56:07.186Z,19.40
2022-09-15T05:58:34.020Z,19.37
2022-09-15T06:01:05.532Z,19.35
2022-09-15T06:03:32.497Z,19.30
2022-09-15T06:06:00.057Z,19.26
2022-09-15T06:08:31.070Z,19.20
2022-09-15T06:11:03.468Z,19.17
2022-09-15T06:13:30.269Z,19.17
2022-09-15T06:16:01.199Z,19.21
2022-09-15T06:18:27.836Z,19.25
2022-09-15T06:20:54.389Z,19.26
2022-09-15T06:23:21.013Z,19.27
2022-09-15T06:25:47.627Z,19.29
2022-09-15T06:28:15.716Z,19.35
2022-09-15T06:30:42.928Z,19.40
2022-09-15T06:33:09.708Z,19.43
2022-09-15T06:35:36.321Z,19.49
2022-09-15T06:38:03.108Z,19.57
2022-09-15T06:40:30.573Z,19.57
2022-09-15T06:42:57.263Z,19.60
2022-09-15T06:45:25.205Z,19.62
2022-09-15T06:48:13.378Z,19.64
2022-09-15T06:50:38.550Z,19.74
2022-09-15T06:53:05.192Z,19.83
2022-09-15T06:55:31.902Z,19.89
2022-09-15T06:57:59.052Z,19.95
2022-09-15T07:00:28.633Z,20.04
2022-09-15T07:02:55.482Z,20.11
2022-09-15T07:05:22.283Z,20.17
2022-09-15T07:07:48.926Z,20.26
2022-09-15T07:10:15.838Z,20.38
2022-09-15T07:12:42.600Z,20.47
2022-09-15T07:15:10.711Z,20.54
2022-09-15T07:17:39.728Z,20.63
2022-09-15T07:20:06.840Z,20.69
2022-09-15T07:22:33.658Z,20.78
2022-09-15T07:25:00.282Z,21.01
2022-09-15T07:27:31.632Z,21.30
2022-09-15T07:29:58.981Z,21.54
2022-09-15T07:32:25.820Z,21.72
2022-09-15T07:34:58.364Z,21.80
2022-09-15T07:37:25.334Z,21.94
2022-09-15T07:39:52.113Z,22.09
2022-09-15T07:42:18.796Z,22.25
2022-09-15T07:44:45.649Z,22.31
2022-09-15T07:47:12.253Z,22.42
2022-09-15T07:49:39.045Z,22.52
2022-09-15T07:52:07.027Z,22.63
2022-09-15T07:54:33.739Z,22.68
2022-09-15T07:57:00.321Z,22.68
2022-09-15T07:59:26.994Z,22.69
2022-09-15T08:01:54.241Z,22.62
2022-09-15T08:04:20.998Z,22.57
2022-09-15T08:06:47.699Z,22.55
2022-09-15T08:09:17.647Z,22.45
2022-09-15T08:11:44.341Z,22.34
2022-09-15T08:14:10.986Z,22.21
2022-09-15T08:16:38.593Z,22.14
2022-09-15T08:19:05.386Z,22.06
2022-09-15T08:21:32.072Z,22.03
2022-09-15T08:23:59.723Z,21.95
2022-09-15T08:26:29.330Z,21.91
2022-09-15T08:28:56.150Z,21.89
2022-09-15T08:31:24.490Z,21.87
2022-09-15T08:33:54.333Z,21.83
2022-09-15T08:36:22.366Z,21.80
2022-09-15T08:38:51.685Z,21.78
2022-09-15T08:41:24.707Z,21.77
2022-09-15T08:43:58.197Z,21.76
2022-09-15T08:46:34.383Z,21.75
2022-09-15T08:49:07.933Z,21.76
2022-09-15T08:51:42.591Z,21.78
2022-09-15T08:54:16.657Z,21.82
2022-09-15T08:56:43.875Z,21.86
2022-09-15T08:59:15.158Z,21.95
2022-09-15T09:01:53.106Z,22.07
2022-09-15T09:04:41.517Z,22.19
2022-09-15T09:07:21.710Z,22.28
2022-09-15T09:09:56.418Z,22.37
2022-09-15T09:12:51.958Z,22.55
2022-09-15T09:15:32.775Z,22.76
2022-09-15T09:18:17.863Z,22.95
2022-09-15T09:20:55.230Z,23.11
2022-09-15T09:23:26.879Z,23.36
2022-09-15T09:25:56.236Z,23.64
2022-09-15T09:28:31.984Z,23.87
2022-09-15T09:31:07.259Z,23.87
2022-09-15T09:33:46.794Z,23.95
2022-09-15T09:36:14.983Z,23.97
2022-09-15T09:38:45.246Z,23.94
2022-09-15T09:41:15.267Z,23.80
2022-09-15T09:43:43.132Z,23.69
2022-09-15T09:46:16.152Z,23.63
2022-09-15T09:48:48.622Z,23.56
2022-09-15T09:51:31.255Z,23.40
2022-09-15T09:54:04.317Z,23.23
2022-09-15T09:56:31.033Z,23.05
2022-09-15T09:58:57.763Z,22.92
2022-09-15T10:01:27.213Z,22.78
2022-09-15T10:04:12.631Z,22.68
2022-09-15T10:06:40.445Z,22.54
2022-09-15T10:09:14.667Z,22.42
2022-09-15T10:11:44.086Z,22.33
2022-09-15T10:14:20.550Z,22.26
2022-09-15T10:17:02.761Z,22.19
2022-09-15T10:19:32.688Z,22.14
2022-09-15T10:22:00.944Z,22.07
2022-09-15T10:24:34.153Z,22.02
2022-09-15T10:27:19.215Z,21.98
2022-09-15T10:29:46.785Z,21.88
2022-09-15T10:32:25.478Z,21.90
2022-09-15T10:35:00.460Z,21.90
2022-09-15T10:37:31.847Z,21.88
2022-09-15T10:40:01.456Z,21.89
2022-09-15T10:42:46.290Z,21.95
2022-09-15T10:45:26.204Z,21.99
2022-09-15T10:48:09.887Z,22.11
2022-09-15T10:50:47.577Z,22.19
2022-09-15T10:53:23.583Z,22.25
2022-09-15T10:55:59.540Z,22.28
2022-09-15T10:58:56.776Z,22.25
2022-09-15T11:01:39.299Z,22.29
2022-09-15T11:04:30.817Z,22.32
2022-09-15T11:07:07.146Z,22.34
2022-09-15T11:09:38.707Z,22.33
2022-09-15T11:12:25.910Z,22.37
2022-09-15T11:15:12.183Z,22.32
2022-09-15T11:17:56.534Z,22.25
2022-09-15T11:20:53.774Z,22.21
2022-09-15T11:23:25.718Z,22.10
2022-09-15T11:25:58.611Z,22.12
2022-09-15T11:28:30.537Z,22.18
2022-09-15T11:31:02.580Z,22.19
2022-09-15T11:33:34.671Z,22.18
2022-09-15T11:36:07.533Z,22.16
2022-09-15T11:38:42.749Z,22.18
2022-09-15T11:41:17.937Z,22.21
2022-09-15T11:43:54.129Z,22.26
2022-09-15T11:46:28.418Z,22.33
2022-09-15T11:49:02.060Z,22.41
2022-09-15T11:51:37.918Z,22.45
2022-09-15T11:54:10.952Z,22.42
2022-09-15T11:56:42.338Z,22.44
2022-09-15T11:59:19.789Z,22.39
2022-09-15T12:01:52.238Z,22.40
2022-09-15T12:04:26.913Z,22.34
2022-09-15T12:07:03.137Z,22.35
2022-09-15T12:09:30.031Z,22.35
2022-09-15T12:12:01.872Z,22.41
2022-09-15T12:14:32.809Z,22.42
2022-09-15T12:17:00.220Z,22.44
2022-09-15T12:19:44.060Z,22.42
2022-09-15T12:22:21.903Z,22.42
2022-09-15T12:24:58.850Z,22.40
2022-09-15T12:27:28.456Z,22.47
2022-09-15T12:29:56.491Z,22.52
2022-09-15T12:32:26.688Z,22.59
2022-09-15T12:35:07.912Z,22.60
2022-09-15T12:37:47.204Z,22.58
2022-09-15T12:40:38.031Z,22.63
2022-09-15T12:43:22.850Z,22.64
2022-09-15T12:45:57.638Z,22.69
2022-09-15T12:48:29.225Z,22.74
2022-09-15T12:50:59.952Z,22.72
2022-09-15T12:53:31.305Z,22.67
2022-09-15T12:56:03.792Z,22.69
2022-09-15T12:58:35.170Z,22.72
2022-09-15T13:01:30.795Z,22.82
2022-09-15T13:04:49.565Z,22.91
2022-09-15T13:07:47.001Z,22.89
2022-09-15T13:10:36.331Z,22.86
2022-09-15T13:13:10.880Z,22.91
2022-09-15T13:15:44.860Z,22.96
2022-09-15T13:18:13.457Z,22.99
2022-09-15T13:20:48.599Z,22.99
2022-09-15T13:23:16.674Z,22.99
2022-09-15T13:25:46.595Z,22.96
2022-09-15T13:30:57.285Z,23.04
2022-09-15T13:39:43.567Z,23.09
2022-09-15T13:42:28.859Z,23.33
2022-09-15T13:45:40.863Z,23.50
2022-09-15T13:48:37.688Z,23.62
2022-09-15T13:51:13.653Z,23.70
2022-09-15T13:53:49.681Z,23.74
2022-09-15T13:56:23.747Z,23.79
2022-09-15T13:58:58.239Z,23.79
2022-09-15T14:01:33.314Z,23.77
2022-09-15T14:04:05.090Z,23.80
2022-09-15T14:06:36.934Z,23.76
2022-09-15T14:09:13.569Z,23.79
2022-09-15T14:11:42.666Z,23.78
2022-09-15T14:14:34.899Z,23.71
2022-09-15T14:17:01.981Z,23.56
2022-09-15T14:19:33.872Z,23.56
2022-09-15T14:24:30.200Z,23.58
2022-09-15T14:27:00.855Z,23.48
2022-09-15T14:29:29.358Z,23.36
2022-09-15T14:32:00.853Z,23.22
2022-09-15T14:34:35.486Z,23.13
2022-09-15T14:37:05.918Z,23.05
2022-09-15T14:39:33.601Z,23.00
2022-09-15T14:42:09.435Z,22.98
2022-09-15T14:47:30.120Z,22.99
2022-09-15T14:50:08.020Z,23.09
2022-09-15T14:52:39.167Z,23.16
2022-09-15T14:55:13.973Z,23.21
2022-09-15T14:57:49.287Z,23.22
2022-09-15T15:00:30.468Z,23.18
2022-09-15T15:03:14.896Z,23.14
2022-09-15T15:08:38.102Z,22.99
2022-09-15T15:11:07.970Z,22.89
2022-09-15T15:13:37.457Z,22.80
2022-09-15T15:16:19.039Z,22.75
2022-09-15T15:18:46.430Z,22.66
2022-09-15T15:21:35.202Z,22.64
2022-09-15T15:24:10.050Z,22.64
2022-09-15T15:26:41.329Z,22.62
2022-09-15T15:29:29.779Z,22.63
2022-09-15T15:32:05.413Z,22.56
2022-09-15T15:34:33.468Z,22.50
2022-09-15T15:37:03.422Z,22.43
2022-09-15T15:39:30.819Z,22.44
2022-09-15T15:42:03.503Z,22.47
2022-09-15T15:44:31.803Z,22.44
2022-09-15T15:47:04.297Z,22.42
2022-09-15T15:49:32.697Z,22.35
2022-09-15T15:52:00.741Z,22.22
2022-09-15T15:54:34.190Z,22.11
2022-09-15T15:57:21.730Z,22.06
2022-09-15T15:59:48.565Z,22.01
2022-09-15T16:02:15.863Z,21.97
2022-09-15T16:04:43.848Z,21.93
2022-09-15T16:07:17.740Z,21.84
2022-09-15T16:09:45.649Z,21.76
2022-09-15T16:12:12.345Z,21.70
2022-09-15T16:14:39.137Z,21.65
2022-09-15T16:17:06.133Z,21.64
2022-09-15T16:19:32.892Z,21.54
2022-09-15T16:22:01.616Z,21.47
2022-09-15T16:24:28.775Z,21.38
2022-09-15T16:26:55.846Z,21.33
2022-09-15T16:29:27.701Z,21.35
2022-09-15T16:31:54.669Z,21.38
2022-09-15T16:34:21.494Z,21.37
2022-09-15T16:36:48.305Z,21.33
2022-09-15T16:39:16.265Z,21.28
2022-09-15T16:41:43.285Z,21.23
2022-09-15T16:44:17.757Z,21.16
2022-09-15T16:46:44.735Z,21.12
2022-09-15T16:49:11.478Z,21.09
2022-09-15T16:51:38.264Z,21.03
2022-09-15T16:54:13.906Z,21.06
2022-09-15T16:56:42.145Z,21.08
2022-09-15T16:59:08.865Z,21.04
2022-09-15T17:01:35.862Z,20.97
2022-09-15T17:04:03.889Z,20.95
2022-09-15T17:06:31.090Z,20.93
2022-09-15T17:08:58.110Z,20.92
2022-09-15T17:11:25.942Z,20.91
2022-09-15T17:13:54.118Z,20.91
2022-09-15T17:16:20.978Z,20.90
2022-09-15T17:18:48.242Z,20.93
2022-09-15T17:21:17.189Z,20.91
2022-09-15T17:23:46.563Z,20.86
2022-09-15T17:26:14.911Z,20.76
2022-09-15T17:28:42.436Z,20.59
2022-09-15T17:31:15.409Z,20.44
2022-09-15T17:33:42.314Z,20.31
2022-09-15T17:36:10.147Z,20.23
2022-09-15T17:38:36.972Z,20.11
2022-09-15T17:41:04.045Z,20.00
2022-09-15T17:43:31.839Z,19.87
2022-09-15T17:45:58.692Z,19.79
2022-09-15T17:48:26.876Z,19.69
2022-09-15T17:50:53.502Z,19.64
2022-09-15T17:53:22.570Z,19.59
2022-09-15T17:55:50.235Z,19.50
2022-09-15T17:58:17.594Z,19.44
2022-09-15T18:00:45.362Z,19.39
2022-09-15T18:03:22.615Z,19.40
2022-09-15T18:05:51.586Z,19.37
2022-09-15T18:08:19.269Z,19.36
2022-09-15T18:10:46.840Z,19.36
2022-09-15T18:13:15.702Z,19.36
2022-09-15T18:15:43.101Z,19.31
2022-09-15T18:18:14.482Z,19.31
2022-09-15T18:20:41.855Z,19.30
2022-09-15T18:23:14.335Z,19.35
2022-09-15T18:25:41.683Z,19.27
2022-09-15T18:28:08.360Z,19.24
2022-09-15T18:30:40.683Z,19.19
2022-09-15T18:33:08.150Z,19.15
2022-09-15T18:35:35.107Z,19.13
2022-09-15T18:38:02.012Z,19.12
2022-09-15T18:40:30.078Z,19.11
2022-09-15T18:42:57.380Z,19.13
2022-09-15T18:45:24.695Z,19.14
2022-09-15T18:47:53.166Z,19.15
2022-09-15T18:50:22.427Z,19.17
2022-09-15T18:52:50.572Z,19.19
2022-09-15T18:55:19.115Z,19.22
2022-09-15T18:57:47.350Z,19.21
2022-09-15T19:00:16.113Z,19.19
2022-09-15T19:02:43.355Z,19.21
2022-09-15T19:05:15.597Z,19.22
2022-09-15T19:07:42.932Z,19.23
2022-09-15T19:10:13.570Z,19.24
2022-09-15T19:12:40.989Z,19.27
2022-09-15T19:15:13.263Z,19.30
2022-09-15T19:17:45.204Z,19.29
2022-09-15T19:20:15.256Z,19.26
2022-09-15T19:22:42.386Z,19.26
2022-09-15T19:25:11.379Z,19.24
2022-09-15T19:27:38.922Z,19.19
2022-09-15T19:30:06.878Z,19.16
2022-09-15T19:32:34.960Z,19.15
2022-09-15T19:35:02.674Z,19.11
2022-09-15T19:37:29.810Z,19.11
2022-09-15T19:39:56.851Z,19.14
2022-09-15T19:42:26.125Z,19.15
2022-09-15T19:44:54.450Z,19.16
2022-09-15T19:47:21.172Z,19.15
2022-09-15T19:49:50.940Z,19.11
2022-09-15T19:52:18.075Z,19.05
2022-09-15T19:54:44.691Z,19.01
2022-09-15T19:57:11.547Z,18.96
2022-09-15T19:59:38.566Z,18.94
2022-09-15T20:02:05.345Z,18.88
2022-09-15T20:04:32.443Z,18.82
2022-09-15T20:07:00.375Z,18.72
2022-09-15T20:09:27.076Z,18.65
2022-09-15T20:11:54.326Z,18.60
2022-09-15T20:14:21.176Z,18.60
2022-09-15T20:16:48.092Z,18.60
2022-09-15T20:19:14.956Z,18.61
2022-09-15T20:21:51.172Z,18.64
2022-09-15T20:24:20.707Z,18.67
2022-09-15T20:26:48.110Z,18.62
2022-09-15T20:29:15.262Z,18.57
2022-09-15T20:31:42.102Z,18.48
2022-09-15T20:34:08.742Z,18.33
2022-09-15T20:36:38.379Z,18.24
2022-09-15T20:39:08.713Z,18.18
2022-09-15T20:41:37.116Z,18.11
2022-09-15T20:44:05.328Z,18.02
2022-09-15T20:46:32.044Z,17.97
2022-09-15T20:48:58.697Z,17.95
2022-09-15T20:51:27.942Z,17.99
2022-09-15T20:53:56.274Z,18.04
2022-09-15T20:56:25.882Z,18.09
2022-09-15T20:58:55.422Z,18.09
2022-09-15T21:01:24.056Z,18.07
2022-09-15T21:03:51.057Z,18.08
2022-09-15T21:06:19.663Z,18.10
2022-09-15T21:08:47.615Z,18.07
2022-09-15T21:11:15.813Z,18.07
2022-09-15T21:13:43.818Z,18.05
2022-09-15T21:16:15.126Z,18.04
2022-09-15T21:18:43.288Z,18.02
2022-09-15T21:21:12.883Z,18.06
2022-09-15T21:23:41.907Z,18.12
2022-09-15T21:26:10.341Z,18.19
2022-09-15T21:28:37.823Z,18.22
2022-09-15T21:31:06.714Z,18.24
2022-09-15T21:33:35.905Z,18.23
2022-09-15T21:36:05.070Z,18.20
2022-09-15T21:38:32.511Z,18.19
2022-09-15T21:40:59.217Z,18.17
2022-09-15T21:43:29.173Z,18.15
2022-09-15T21:45:56.535Z,18.09
2022-09-15T21:48:23.203Z,18.02
2022-09-15T21:50:51.660Z,17.98
2022-09-15T21:53:20.207Z,17.94
2022-09-15T21:55:50.402Z,17.93
2022-09-15T21:58:18.175Z,17.88
2022-09-15T22:00:45.012Z,17.83
2022-09-15T22:03:11.694Z,17.70
2022-09-15T22:05:39.333Z,17.63
2022-09-15T22:08:08.715Z,17.57
2022-09-15T22:10:35.591Z,17.54
2022-09-15T22:13:02.250Z,17.48
2022-09-15T22:15:29.365Z,17.40
2022-09-15T22:17:56.134Z,17.32
2022-09-15T22:20:22.851Z,17.32
2022-09-15T22:22:49.509Z,17.31
2022-09-15T22:25:21.815Z,17.27
2022-09-15T22:27:48.703Z,17.25
2022-09-15T22:30:15.577Z,17.25
2022-09-15T22:32:42.254Z,17.27
2022-09-15T22:35:11.434Z,17.30
2022-09-15T22:37:38.147Z,17.30
2022-09-15T22:40:06.025Z,17.31
2022-09-15T22:42:34.124Z,17.26
2022-09-15T22:45:00.817Z,17.21
2022-09-15T22:47:27.418Z,17.14
2022-09-15T22:49:54.011Z,17.06
2022-09-15T22:52:21.220Z,16.96
2022-09-15T22:54:47.949Z,16.87
2022-09-15T22:57:14.535Z,16.84
2022-09-15T22:59:42.432Z,16.81
2022-09-15T23:02:09.207Z,16.78
2022-09-15T23:04:35.894Z,16.75
2022-09-15T23:07:02.471Z,16.75
2022-09-15T23:09:29.297Z,16.75
2022-09-15T23:11:56.007Z,16.77
2022-09-15T23:14:23.830Z,16.81
2022-09-15T23:16:51.917Z,16.85
2022-09-15T23:19:18.485Z,16.88
2022-09-15T23:21:45.204Z,16.95
2022-09-15T23:24:12.502Z,16.98
2022-09-15T23:26:39.583Z,16.99
2022-09-15T23:29:06.300Z,17.00
2022-09-15T23:31:33.009Z,17.01
2022-09-15T23:34:01.179Z,17.05
2022-09-15T23:36:27.951Z,17.07
2022-09-15T23:38:54.751Z,17.08
2022-09-15T23:41:21.598Z,17.08
2022-09-15T23:43:48.232Z,17.09
2022-09-15T23:46:15.009Z,17.13
2022-09-15T23:48:41.970Z,17.16
2022-09-15T23:51:10.365Z,17.20
2022-09-15T23:53:37.233Z,17.23
2022-09-15T23:56:04.139Z,17.28
2022-09-15T23:58:30.999Z,17.30
